createdAt,value
2018-06-12T00:01:44.262Z,38.63
2018-06-12T00:04:12.677Z,67.43
2018-06-12T00:06:41.054Z,69.87
2018-06-12T00:09:09.488Z,78.60
2018-06-12T00:11:37.917Z,57.67
2018-06-12T00:14:06.533Z,67.77
2018-06-12T00:16:34.924Z,51.67
2018-06-12T00:19:03.337Z,62.30
2018-06-12T00:21:31.395Z,52.07
2018-06-12T00:23:59.983Z,40.27
2018-06-12T00:26:28.345Z,56.80
2018-06-12T00:28:56.743Z,49.07
2018-06-12T00:31:25.105Z,64.27
2018-06-12T00:33:53.503Z,57.17
2018-06-12T00:36:21.611Z,61.63
2018-06-12T00:38:50.037Z,61.53
2018-06-12T00:41:18.449Z,49.00
2018-06-12T00:43:46.809Z,45.13
2018-06-12T00:46:15.213Z,57.80
2018-06-12T00:48:43.298Z,43.33
2018-06-12T00:51:11.647Z,44.33
2018-06-12T00:53:40.029Z,48.07
2018-06-12T00:56:08.097Z,43.03
2018-06-12T00:58:36.459Z,51.77
2018-06-12T01:01:04.864Z,43.47
2018-06-12T01:03:32.936Z,44.00
2018-06-12T01:06:01.354Z,48.60
2018-06-12T01:08:29.718Z,45.47
2018-06-12T01:10:58.118Z,51.00
2018-06-12T01:13:26.484Z,47.70
2018-06-12T01:15:54.864Z,55.03
2018-06-12T01:18:23.244Z,55.57
2018-06-12T01:20:51.640Z,52.50
2018-06-12T01:23:20.057Z,51.83
2018-06-12T01:25:48.493Z,64.83
2018-06-12T01:28:16.890Z,71.67
2018-06-12T01:30:45.314Z,59.53
2018-06-12T01:33:13.702Z,69.90
2018-06-12T01:35:42.062Z,50.47
2018-06-12T01:38:10.448Z,69.43
2018-06-12T01:40:38.858Z,56.17
2018-06-12T01:43:07.185Z,73.97
2018-06-12T01:45:35.578Z,70.50
2018-06-12T01:48:03.989Z,44.43
2018-06-12T01:50:32.390Z,65.80
2018-06-12T01:53:00.756Z,69.93
2018-06-12T01:55:29.107Z,73.20
2018-06-12T01:57:57.482Z,72.67
2018-06-12T02:00:25.842Z,70.53
2018-06-12T02:02:54.218Z,54.83
2018-06-12T02:05:22.352Z,62.23
2018-06-12T02:07:50.769Z,68.73
2018-06-12T02:10:19.148Z,79.90
2018-06-12T02:12:47.526Z,80.47
2018-06-12T02:15:15.613Z,47.53
2018-06-12T02:17:44.008Z,57.70
2018-06-12T02:20:12.416Z,52.33
2018-06-12T02:22:40.842Z,60.00
2018-06-12T02:25:09.184Z,66.57
2018-06-12T02:27:37.526Z,58.07
2018-06-12T02:30:05.959Z,80.13
2018-06-12T02:32:34.318Z,93.13
2018-06-12T02:35:02.693Z,94.67
2018-06-12T02:37:31.064Z,53.57
2018-06-12T02:39:59.490Z,104.40
2018-06-12T02:42:27.836Z,88.73
2018-06-12T02:44:56.233Z,95.13
2018-06-12T02:47:24.673Z,108.20
2018-06-12T02:49:53.077Z,100.40
2018-06-12T02:52:21.442Z,98.57
2018-06-12T02:54:49.842Z,77.17
2018-06-12T02:57:18.206Z,93.63
2018-06-12T02:59:46.617Z,94.37
2018-06-12T03:02:15.042Z,105.67
2018-06-12T03:04:43.405Z,77.70
2018-06-12T03:07:11.753Z,79.97
2018-06-12T03:09:40.104Z,89.43
2018-06-12T03:12:08.500Z,96.83
2018-06-12T03:14:36.867Z,102.03
2018-06-12T03:17:05.346Z,74.77
2018-06-12T03:19:33.721Z,108.63
2018-06-12T03:22:02.145Z,129.37
2018-06-12T03:24:30.551Z,113.30
2018-06-12T03:26:58.955Z,108.97
2018-06-12T03:29:27.378Z,89.20
2018-06-12T03:31:55.456Z,122.20
2018-06-12T03:34:23.872Z,90.77
2018-06-12T03:36:52.325Z,114.27
2018-06-12T03:39:20.688Z,106.40
2018-06-12T03:41:49.068Z,123.17
2018-06-12T03:44:17.422Z,136.30
2018-06-12T03:46:45.826Z,141.00
2018-06-12T03:49:14.254Z,151.50
2018-06-12T03:51:43.248Z,177.87
2018-06-12T03:54:11.620Z,185.03
2018-06-12T03:56:39.999Z,191.67
2018-06-12T03:59:08.413Z,179.63
2018-06-12T04:01:36.768Z,144.13
2018-06-12T04:04:05.236Z,180.47
2018-06-12T04:06:36.866Z,191.23
2018-06-12T04:09:08.908Z,178.83
2018-06-12T04:11:36.996Z,188.00
2018-06-12T04:14:06.311Z,120.43
2018-06-12T04:16:36.792Z,169.00
2018-06-12T04:19:07.223Z,210.07
2018-06-12T04:21:36.063Z,165.40
2018-06-12T04:24:04.537Z,149.53
2018-06-12T04:26:32.973Z,168.33
2018-06-12T04:29:01.415Z,154.20
2018-06-12T04:31:29.779Z,150.60
2018-06-12T04:33:58.221Z,135.37
2018-06-12T04:36:26.593Z,137.00
2018-06-12T04:38:55.046Z,148.70
2018-06-12T04:41:23.453Z,113.20
2018-06-12T04:43:52.101Z,91.77
2018-06-12T04:46:20.503Z,57.87
2018-06-12T04:48:48.847Z,69.87
2018-06-12T04:51:17.250Z,46.70
2018-06-12T04:53:45.599Z,48.47
2018-06-12T04:56:14.015Z,54.03
2018-06-12T04:58:42.422Z,38.03
2018-06-12T05:01:10.503Z,41.83
2018-06-12T05:03:38.855Z,41.03
2018-06-12T05:06:07.287Z,41.57
2018-06-12T05:08:35.656Z,27.73
2018-06-12T05:11:04.125Z,33.90
2018-06-12T05:13:32.606Z,27.47
2018-06-12T05:16:01.055Z,24.73
2018-06-12T05:18:29.467Z,31.00
2018-06-12T05:20:57.583Z,29.93
2018-06-12T05:23:25.952Z,32.23
2018-06-12T05:25:54.366Z,41.60
2018-06-12T05:28:22.774Z,28.03
2018-06-12T05:30:51.219Z,23.77
2018-06-12T05:33:19.650Z,23.83
2018-06-12T05:35:47.992Z,19.70
2018-06-12T05:38:16.452Z,13.50
2018-06-12T05:40:44.862Z,12.03
2018-06-12T05:43:14.260Z,11.33
2018-06-12T05:45:42.684Z,8.87
2018-06-12T05:48:11.081Z,6.03
2018-06-12T05:50:39.529Z,6.43
2018-06-12T05:53:07.944Z,4.17
2018-06-12T05:55:36.322Z,4.10
2018-06-12T05:58:04.762Z,6.23
2018-06-12T06:00:33.104Z,4.70
2018-06-12T06:03:01.472Z,4.23
2018-06-12T06:05:29.834Z,3.67
2018-06-12T06:07:58.741Z,3.77
2018-06-12T06:10:27.168Z,4.10
2018-06-12T06:12:55.536Z,4.33
2018-06-12T06:15:23.940Z,3.60
2018-06-12T06:17:52.370Z,4.83
2018-06-12T06:20:20.804Z,5.53
2018-06-12T06:22:49.148Z,5.07
2018-06-12T06:25:17.594Z,6.03
2018-06-12T06:27:45.983Z,7.03
2018-06-12T06:30:14.374Z,6.67
2018-06-12T06:32:42.747Z,6.30
2018-06-12T06:35:11.173Z,8.17
2018-06-12T06:37:39.536Z,11.03
2018-06-12T06:40:07.911Z,9.53
2018-06-12T06:42:36.271Z,8.57
2018-06-12T06:45:04.735Z,7.30
2018-06-12T06:47:33.134Z,8.20
2018-06-12T06:50:01.503Z,6.93
2018-06-12T06:52:29.963Z,8.20
2018-06-12T06:54:58.383Z,8.17
2018-06-12T06:57:26.765Z,10.73
2018-06-12T06:59:55.128Z,11.37
2018-06-12T07:02:23.545Z,9.17
2018-06-12T07:04:51.903Z,12.07
2018-06-12T07:07:20.538Z,9.13
2018-06-12T07:09:48.914Z,20.10
2018-06-12T07:12:17.302Z,16.87
2018-06-12T07:14:45.672Z,16.40
2018-06-12T07:17:14.075Z,10.37
2018-06-12T07:19:42.479Z,11.47
2018-06-12T07:22:10.895Z,13.73
2018-06-12T07:24:39.366Z,12.63
2018-06-12T07:27:07.869Z,17.10
2018-06-12T07:29:36.355Z,11.47
2018-06-12T07:32:04.767Z,13.17
2018-06-12T07:34:33.134Z,13.33
2018-06-12T07:37:01.520Z,11.77
2018-06-12T07:39:29.969Z,14.93
2018-06-12T07:41:58.934Z,19.23
2018-06-12T07:44:27.510Z,19.67
2018-06-12T07:46:55.886Z,11.97
2018-06-12T07:49:24.228Z,15.00
2018-06-12T07:51:52.682Z,14.80
2018-06-12T07:54:22.096Z,16.03
2018-06-12T07:56:50.924Z,12.60
2018-06-12T07:59:19.354Z,12.83
2018-06-12T08:01:47.819Z,13.40
2018-06-12T08:04:16.242Z,14.60
2018-06-12T08:06:44.648Z,11.93
2018-06-12T08:09:13.108Z,15.17
2018-06-12T08:11:41.507Z,10.30
2018-06-12T08:14:09.917Z,10.37
2018-06-12T08:16:38.303Z,10.27
2018-06-12T08:19:06.696Z,9.60
2018-06-12T08:21:35.068Z,7.70
2018-06-12T08:24:03.543Z,7.53
2018-06-12T08:26:32.012Z,6.40
2018-06-12T08:29:00.725Z,7.27
2018-06-12T08:31:29.092Z,7.00
2018-06-12T08:33:57.542Z,6.10
2018-06-12T08:36:25.972Z,6.77
2018-06-12T08:38:54.310Z,6.40
2018-06-12T08:41:22.729Z,5.77
2018-06-12T08:43:51.104Z,5.70
2018-06-12T08:46:19.596Z,4.97
2018-06-12T08:48:48.196Z,4.57
2018-06-12T08:51:16.686Z,4.03
2018-06-12T08:53:45.031Z,4.57
2018-06-12T08:56:13.854Z,4.57
2018-06-12T08:58:42.182Z,4.00
2018-06-12T09:01:10.555Z,4.63
2018-06-12T09:03:38.972Z,5.77
2018-06-12T09:06:07.330Z,4.43
2018-06-12T09:08:35.849Z,5.10
2018-06-12T09:11:04.292Z,5.13
2018-06-12T09:13:32.728Z,4.97
2018-06-12T09:16:01.124Z,8.00
2018-06-12T09:18:29.826Z,6.67
2018-06-12T09:20:58.205Z,6.20
2018-06-12T09:23:26.689Z,6.80
2018-06-12T09:25:55.163Z,6.37
2018-06-12T09:28:23.558Z,8.20
2018-06-12T09:30:53.673Z,7.93
2018-06-12T09:33:22.139Z,6.63
2018-06-12T09:35:50.633Z,7.20
2018-06-12T09:38:19.069Z,7.67
2018-06-12T09:40:47.141Z,8.53
2018-06-12T09:43:15.545Z,6.77
2018-06-12T09:45:44.075Z,6.70
2018-06-12T09:48:12.955Z,8.40
2018-06-12T09:50:41.313Z,7.20
2018-06-12T09:53:09.710Z,8.83
2018-06-12T09:55:38.150Z,7.90
2018-06-12T09:58:06.536Z,10.30
2018-06-12T10:00:40.207Z,7.97
2018-06-12T10:03:08.848Z,7.27
2018-06-12T10:05:37.336Z,8.40
2018-06-12T10:08:05.932Z,5.97
2018-06-12T10:10:34.366Z,7.17
2018-06-12T10:13:02.743Z,7.87
2018-06-12T10:15:31.172Z,6.60
2018-06-12T10:17:59.574Z,6.60
2018-06-12T10:20:27.698Z,6.43
2018-06-12T10:22:56.076Z,6.40
2018-06-12T10:25:24.551Z,6.30
2018-06-12T10:27:53.198Z,4.90
2018-06-12T10:30:21.618Z,5.63
2018-06-12T10:32:50.097Z,5.20
2018-06-12T10:35:18.526Z,5.50
2018-06-12T10:37:46.904Z,5.20
2018-06-12T10:40:15.300Z,5.77
2018-06-12T10:42:43.691Z,5.00
2018-06-12T10:45:12.112Z,4.27
2018-06-12T10:47:40.464Z,3.63
2018-06-12T10:50:08.906Z,4.10
2018-06-12T10:52:38.059Z,3.27
2018-06-12T10:55:06.484Z,3.87
2018-06-12T10:57:34.909Z,3.95
2018-06-12T11:00:03.326Z,3.52
2018-06-12T11:02:31.731Z,3.50
2018-06-12T11:05:00.142Z,4.28
2018-06-12T11:07:28.543Z,3.90
2018-06-12T11:09:56.913Z,3.10
2018-06-12T11:12:25.421Z,3.92
2018-06-12T11:14:53.831Z,3.45
2018-06-12T11:17:22.415Z,3.40
2018-06-12T11:19:50.497Z,3.50
2018-06-12T11:22:18.899Z,3.27
2018-06-12T11:24:47.340Z,3.75
2018-06-12T11:27:15.890Z,3.45
2018-06-12T11:29:45.185Z,3.37
2018-06-12T11:32:14.445Z,2.70
2018-06-12T11:34:43.059Z,2.72
2018-06-12T11:37:11.889Z,2.20
2018-06-12T11:39:40.409Z,2.50
2018-06-12T11:42:08.803Z,2.70
2018-06-12T11:44:37.218Z,2.33
2018-06-12T11:47:06.056Z,2.45
2018-06-12T11:49:34.531Z,3.20
2018-06-12T11:52:02.958Z,2.75
2018-06-12T11:54:31.387Z,2.90
2018-06-12T11:56:59.821Z,2.83
2018-06-12T11:59:28.240Z,3.22
2018-06-12T12:01:56.658Z,2.77
2018-06-12T12:04:25.058Z,3.12
2018-06-12T12:06:53.480Z,3.00
2018-06-12T12:09:21.937Z,3.17
2018-06-12T12:11:50.373Z,3.30
2018-06-12T12:14:18.815Z,3.55
2018-06-12T12:16:47.222Z,3.55
2018-06-12T12:19:15.595Z,3.37
2018-06-12T12:21:44.009Z,3.60
2018-06-12T12:24:12.438Z,5.00
2018-06-12T12:26:41.155Z,3.65
2018-06-12T12:29:09.513Z,3.80
2018-06-12T12:31:38.387Z,4.78
2018-06-12T12:34:06.853Z,4.50
2018-06-12T12:36:35.311Z,3.70
2018-06-12T12:39:04.196Z,4.20
2018-06-12T12:41:32.605Z,5.62
2018-06-12T12:44:01.058Z,4.12
2018-06-12T12:46:29.485Z,4.22
2018-06-12T12:48:57.925Z,4.67
2018-06-12T12:51:26.319Z,4.28
2018-06-12T12:53:54.737Z,4.70
2018-06-12T12:56:23.182Z,4.40
2018-06-12T12:58:51.241Z,4.30
2018-06-12T13:01:19.699Z,5.08
2018-06-12T13:03:48.101Z,5.50
2018-06-12T13:06:16.559Z,5.62
2018-06-12T13:08:44.973Z,6.20
2018-06-12T13:11:13.401Z,6.97
2018-06-12T13:13:41.849Z,7.12
2018-06-12T13:16:10.318Z,6.00
2018-06-12T13:18:38.872Z,5.47
2018-06-12T13:21:07.340Z,7.10
2018-06-12T13:23:35.761Z,6.03
2018-06-12T13:26:04.851Z,6.67
2018-06-12T13:28:33.297Z,6.57
2018-06-12T13:31:01.733Z,6.53
2018-06-12T13:33:30.325Z,7.20
2018-06-12T13:35:58.669Z,7.73
2018-06-12T13:38:27.241Z,8.07
2018-06-12T13:40:55.637Z,8.23
2018-06-12T13:43:24.085Z,8.03
2018-06-12T13:45:52.617Z,7.73
2018-06-12T13:48:21.151Z,9.33
2018-06-12T13:50:49.555Z,10.07
2018-06-12T13:53:18.065Z,9.33
2018-06-12T13:55:46.573Z,11.47
2018-06-12T13:58:14.959Z,12.90
2018-06-12T14:00:43.451Z,7.90
2018-06-12T14:03:11.907Z,8.73
2018-06-12T14:05:40.317Z,10.80
2018-06-12T14:08:08.804Z,10.07
2018-06-12T14:10:37.226Z,9.53
2018-06-12T14:13:05.892Z,8.97
2018-06-12T14:15:34.602Z,10.20
2018-06-12T14:18:03.025Z,9.27
2018-06-12T14:20:31.662Z,10.83
2018-06-12T14:23:00.630Z,10.77
2018-06-12T14:25:29.730Z,12.50
2018-06-12T14:27:58.806Z,10.83
2018-06-12T14:30:27.530Z,10.60
2018-06-12T14:32:58.313Z,11.90
2018-06-12T14:35:29.290Z,10.47
2018-06-12T14:37:57.866Z,10.90
2018-06-12T14:40:26.968Z,12.73
2018-06-12T14:42:55.716Z,12.97
2018-06-12T14:45:24.140Z,12.10
2018-06-12T14:47:52.545Z,13.70
2018-06-12T14:50:20.993Z,11.77
2018-06-12T14:52:49.121Z,10.93
2018-06-12T14:55:18.135Z,11.97
2018-06-12T14:57:46.604Z,11.20
2018-06-12T15:00:14.989Z,13.87
2018-06-12T15:02:43.423Z,12.27
2018-06-12T15:05:11.865Z,13.67
2018-06-12T15:07:40.435Z,11.60
2018-06-12T15:10:09.403Z,11.60
2018-06-12T15:12:37.874Z,10.70
2018-06-12T15:15:06.415Z,10.13
2018-06-12T15:17:35.024Z,12.33
2018-06-12T15:20:03.489Z,9.77
2018-06-12T15:22:31.947Z,10.83
2018-06-12T15:25:00.343Z,11.27
2018-06-12T15:27:28.879Z,10.03
2018-06-12T15:29:57.245Z,12.43
2018-06-12T15:32:25.677Z,11.47
2018-06-12T15:34:54.082Z,12.87
2018-06-12T15:37:22.521Z,12.00
2018-06-12T15:39:50.913Z,12.80
2018-06-12T15:42:19.297Z,13.03
2018-06-12T15:44:47.760Z,13.63
2018-06-12T15:47:16.230Z,13.53
2018-06-12T15:49:44.655Z,14.33
2018-06-12T15:52:12.837Z,14.23
2018-06-12T15:54:41.231Z,11.27
2018-06-12T15:57:09.663Z,12.17
2018-06-12T15:59:38.101Z,12.07
2018-06-12T16:02:06.561Z,11.40
2018-06-12T16:04:35.063Z,11.13
2018-06-12T16:07:03.490Z,10.63
2018-06-12T16:09:31.888Z,9.80
2018-06-12T16:12:00.308Z,8.47
2018-06-12T16:14:28.874Z,8.40
2018-06-12T16:16:57.325Z,7.77
2018-06-12T16:19:25.465Z,8.50
2018-06-12T16:21:54.424Z,7.33
2018-06-12T16:24:22.829Z,7.00
2018-06-12T16:26:51.298Z,7.20
2018-06-12T16:29:19.677Z,6.90
2018-06-12T16:31:48.039Z,6.37
2018-06-12T16:34:16.433Z,10.13
2018-06-12T16:36:44.837Z,7.60
2018-06-12T16:39:13.234Z,7.43
2018-06-12T16:41:41.642Z,6.90
2018-06-12T16:44:10.031Z,6.47
2018-06-12T16:46:38.415Z,6.43
2018-06-12T16:49:06.782Z,7.23
2018-06-12T16:51:35.177Z,6.87
2018-06-12T16:54:03.568Z,6.83
2018-06-12T16:56:32.037Z,8.10
2018-06-12T16:59:00.413Z,7.10
2018-06-12T17:01:28.961Z,7.47
2018-06-12T17:03:57.082Z,7.10
2018-06-12T17:06:25.519Z,6.70
2018-06-12T17:08:53.626Z,6.07
2018-06-12T17:11:21.963Z,6.17
2018-06-12T17:13:50.435Z,6.20
2018-06-12T17:16:18.858Z,6.50
2018-06-12T17:18:47.284Z,6.40
2018-06-12T17:21:15.647Z,7.13
2018-06-12T17:23:44.007Z,7.03
2018-06-12T17:26:12.439Z,6.87
2018-06-12T17:28:40.806Z,7.40
2018-06-12T17:31:09.237Z,6.63
2018-06-12T17:33:37.654Z,9.73
2018-06-12T17:36:06.057Z,8.00
2018-06-12T17:38:34.445Z,7.43
2018-06-12T17:41:02.880Z,6.73
2018-06-12T17:43:31.266Z,8.37
2018-06-12T17:45:59.701Z,8.77
2018-06-12T17:48:28.059Z,8.33
2018-06-12T17:50:56.206Z,10.90
2018-06-12T17:53:24.563Z,9.30
2018-06-12T17:55:52.981Z,10.30
2018-06-12T17:58:21.376Z,12.40
2018-06-12T18:00:49.775Z,9.93
2018-06-12T18:03:18.182Z,10.13
2018-06-12T18:05:46.634Z,12.20
2018-06-12T18:08:15.080Z,9.77
2018-06-12T18:10:43.463Z,10.60
2018-06-12T18:13:11.820Z,9.47
2018-06-12T18:15:40.247Z,9.73
2018-06-12T18:18:08.608Z,9.47
2018-06-12T18:20:37.043Z,10.13
2018-06-12T18:23:05.550Z,9.33
2018-06-12T18:25:33.930Z,9.77
2018-06-12T18:28:02.316Z,10.43
2018-06-12T18:30:30.440Z,9.83
2018-06-12T18:32:58.843Z,9.93
2018-06-12T18:35:27.267Z,8.60
2018-06-12T18:37:55.656Z,9.83
2018-06-12T18:40:24.058Z,8.47
2018-06-12T18:42:52.462Z,8.53
2018-06-12T18:45:20.804Z,8.47
2018-06-12T18:47:49.224Z,9.10
2018-06-12T18:50:17.672Z,7.77
2018-06-12T18:52:46.087Z,7.27
2018-06-12T18:55:14.491Z,8.10
2018-06-12T18:57:42.586Z,7.07
2018-06-12T19:00:11.100Z,7.73
2018-06-12T19:02:39.554Z,6.70
2018-06-12T19:05:07.968Z,7.67
2018-06-12T19:07:36.434Z,7.40
2018-06-12T19:10:04.868Z,9.43
2018-06-12T19:12:32.976Z,7.80
2018-06-12T19:15:01.420Z,7.50
2018-06-12T19:17:29.525Z,8.07
2018-06-12T19:19:57.964Z,8.00
2018-06-12T19:22:26.342Z,8.37
2018-06-12T19:24:54.755Z,10.87
2018-06-12T19:27:23.166Z,10.90
2018-06-12T19:29:51.576Z,8.03
2018-06-12T19:32:19.975Z,8.00
2018-06-12T19:34:48.363Z,6.70
2018-06-12T19:37:16.747Z,7.70
2018-06-12T19:39:45.054Z,9.10
2018-06-12T19:42:13.550Z,7.83
2018-06-12T19:44:41.976Z,6.33
2018-06-12T19:47:10.451Z,7.40
2018-06-12T19:49:38.874Z,6.57
2018-06-12T19:52:07.267Z,6.53
2018-06-12T19:54:35.725Z,7.17
2018-06-12T19:57:04.042Z,6.03
2018-06-12T19:59:32.508Z,7.03
2018-06-12T20:02:00.849Z,6.97
2018-06-12T20:04:29.224Z,7.10
2018-06-12T20:06:57.639Z,6.87
2018-06-12T20:09:26.051Z,6.00
2018-06-12T20:11:54.490Z,6.47
2018-06-12T20:14:22.868Z,6.63
2018-06-12T20:16:51.256Z,6.23
2018-06-12T20:19:19.691Z,6.90
2018-06-12T20:21:48.094Z,7.37
2018-06-12T20:24:16.490Z,8.30
2018-06-12T20:26:45.016Z,8.73
2018-06-12T20:29:13.427Z,7.87
2018-06-12T20:31:42.158Z,9.03
2018-06-12T20:34:10.620Z,9.53
2018-06-12T20:36:39.046Z,8.27
2018-06-12T20:39:08.319Z,7.40
2018-06-12T20:41:36.759Z,10.77
2018-06-12T20:44:05.322Z,11.40
2018-06-12T20:46:33.756Z,9.43
2018-06-12T20:49:02.175Z,8.13
2018-06-12T20:51:30.264Z,8.77
2018-06-12T20:53:58.658Z,9.13
2018-06-12T20:56:27.313Z,8.73
2018-06-12T20:58:55.715Z,9.23
2018-06-12T21:01:24.222Z,10.03
2018-06-12T21:03:52.662Z,12.10
2018-06-12T21:06:21.128Z,11.63
2018-06-12T21:08:49.234Z,13.30
2018-06-12T21:11:17.670Z,10.17
2018-06-12T21:13:46.119Z,10.50
2018-06-12T21:16:14.495Z,11.33
2018-06-12T21:18:42.880Z,11.93
2018-06-12T21:21:11.283Z,12.53
2018-06-12T21:23:39.668Z,11.07
2018-06-12T21:26:08.093Z,11.70
2018-06-12T21:28:36.549Z,12.83
2018-06-12T21:31:05.001Z,14.33
2018-06-12T21:33:33.399Z,14.63
2018-06-12T21:36:01.786Z,16.50
2018-06-12T21:38:30.213Z,17.67
2018-06-12T21:40:58.676Z,19.67
2018-06-12T21:43:27.399Z,18.83
2018-06-12T21:45:55.822Z,20.30
2018-06-12T21:48:25.616Z,19.20
2018-06-12T21:50:54.013Z,21.07
2018-06-12T21:53:22.447Z,20.70
2018-06-12T21:55:50.881Z,20.47
2018-06-12T21:58:19.328Z,18.67
2018-06-12T22:00:47.692Z,20.20
2018-06-12T22:03:16.066Z,20.30
2018-06-12T22:05:44.423Z,19.80
2018-06-12T22:08:12.788Z,21.10
2018-06-12T22:10:41.173Z,21.33
2018-06-12T22:13:09.589Z,21.37
2018-06-12T22:15:37.988Z,20.20
2018-06-12T22:18:06.366Z,22.87
2018-06-12T22:20:34.566Z,20.33
2018-06-12T22:23:02.947Z,21.40
2018-06-12T22:25:31.376Z,23.37
2018-06-12T22:27:59.762Z,20.23
2018-06-12T22:30:28.171Z,21.70
2018-06-12T22:32:56.565Z,22.30
2018-06-12T22:35:24.981Z,21.70
2018-06-12T22:37:53.409Z,23.23
2018-06-12T22:40:21.809Z,21.87
2018-06-12T22:42:50.151Z,21.87
2018-06-12T22:45:18.610Z,22.73
2018-06-12T22:47:47.015Z,22.80
2018-06-12T22:50:15.513Z,22.83
2018-06-12T22:52:43.895Z,19.80
2018-06-12T22:55:12.391Z,22.23
2018-06-12T22:57:40.831Z,20.73
2018-06-12T23:00:09.202Z,20.77
2018-06-12T23:02:37.598Z,20.47
2018-06-12T23:05:05.990Z,19.77
2018-06-12T23:07:34.394Z,21.77
2018-06-12T23:10:02.772Z,19.83
2018-06-12T23:12:31.185Z,18.47
2018-06-12T23:14:59.497Z,19.33
2018-06-12T23:17:27.891Z,19.27
2018-06-12T23:20:07.459Z,18.53
2018-06-12T23:22:35.833Z,18.97
2018-06-12T23:25:04.231Z,17.87
2018-06-12T23:27:32.605Z,16.97
2018-06-12T23:30:00.978Z,17.90
2018-06-12T23:32:29.408Z,15.73
2018-06-12T23:34:57.822Z,16.63
2018-06-12T23:37:26.228Z,15.87
2018-06-12T23:39:54.596Z,16.00
2018-06-12T23:42:23.062Z,15.57
2018-06-12T23:44:51.413Z,16.13
2018-06-12T23:47:19.795Z,16.43
2018-06-12T23:49:48.168Z,16.50
2018-06-12T23:52:16.610Z,15.83
2018-06-12T23:54:44.949Z,16.93
2018-06-12T23:57:13.346Z,16.60
2018-06-12T23:59:41.772Z,16.67
